createdAt,value
2019-02-24T00:04:40.209Z,51.10
2019-02-24T00:18:03.064Z,50.80
2019-02-24T00:31:25.886Z,50.60
2019-02-24T00:58:23.841Z,50.20
2019-02-24T01:11:31.124Z,50.10
2019-02-24T01:24:38.420Z,50.00
2019-02-24T01:37:45.601Z,49.90
2019-02-24T01:50:52.757Z,49.80
2019-02-24T02:04:16.401Z,49.70
2019-02-24T02:17:39.188Z,49.50
2019-02-24T02:31:02.131Z,49.40
2019-02-24T02:44:24.798Z,49.40
2019-02-24T02:57:47.749Z,49.20
2019-02-24T03:11:10.591Z,49.20
2019-02-24T03:24:33.409Z,49.00
2019-02-24T03:37:56.112Z,48.90
2019-02-24T03:51:18.932Z,48.80
2019-02-24T04:04:41.851Z,48.70
2019-02-24T04:18:04.668Z,48.70
2019-02-24T04:31:27.462Z,48.60
2019-02-24T04:44:50.167Z,48.60
2019-02-24T04:58:12.979Z,48.50
2019-02-24T05:11:35.810Z,48.40
2019-02-24T05:24:58.634Z,49.00
2019-02-24T05:38:21.570Z,48.30
2019-02-24T05:51:44.373Z,48.30
2019-02-24T06:05:07.147Z,48.20
2019-02-24T06:18:29.901Z,48.10
2019-02-24T06:31:52.813Z,47.90
2019-02-24T06:45:15.651Z,47.80
2019-02-24T06:58:38.334Z,47.90
2019-02-24T07:25:02.800Z,47.60
2019-02-24T07:38:10.058Z,47.50
2019-02-24T07:51:17.193Z,47.50
2019-02-24T08:04:24.434Z,47.50
2019-02-24T08:17:31.566Z,48.00
2019-02-24T08:30:41.256Z,48.90
2019-02-24T08:44:02.590Z,50.00
2019-02-24T08:57:25.334Z,50.00
2019-02-24T09:10:48.185Z,50.00
2019-02-24T09:24:11.122Z,47.50
2019-02-24T09:50:35.956Z,48.10
2019-02-24T10:03:43.142Z,48.20
2019-02-24T10:29:54.794Z,45.20
2019-02-24T10:43:01.950Z,47.60
2019-02-24T10:56:09.159Z,48.40
2019-02-24T11:09:16.368Z,48.10
2019-02-24T11:22:23.653Z,42.20
2019-02-24T11:35:30.833Z,44.90
2019-02-24T11:48:54.689Z,46.10
2019-02-24T12:02:17.432Z,46.60
2019-02-24T12:15:40.159Z,47.50
2019-02-24T12:29:02.948Z,48.30
2019-02-24T12:42:25.908Z,48.70
2019-02-24T12:55:48.695Z,48.80
2019-02-24T13:22:13.078Z,49.30
2019-02-24T13:35:20.324Z,49.60
2019-02-24T13:48:27.700Z,49.80
2019-02-24T14:01:34.875Z,50.00
2019-02-24T14:14:48.704Z,50.30
2019-02-24T14:27:49.471Z,50.30
2019-02-24T14:54:14.467Z,50.60
2019-02-24T15:07:21.637Z,51.50
2019-02-24T15:20:28.992Z,51.00
2019-02-24T15:33:36.144Z,51.10
2019-02-24T15:46:43.440Z,51.20
2019-02-24T15:59:50.611Z,50.80
2019-02-24T16:13:16.675Z,51.30
2019-02-24T16:26:37.164Z,52.50
2019-02-24T16:40:00.003Z,51.40
2019-02-24T16:53:22.708Z,50.70
2019-02-24T17:06:45.740Z,50.40
2019-02-24T17:33:10.197Z,47.10
2019-02-24T17:46:17.600Z,37.60
2019-02-24T17:59:25.002Z,37.20
2019-02-24T18:12:32.248Z,42.20
2019-02-24T18:25:39.592Z,30.30
2019-02-24T18:39:03.273Z,42.20
2019-02-24T18:52:26.107Z,43.70
2019-02-24T19:05:48.918Z,44.80
2019-02-24T19:19:11.836Z,45.50
2019-02-24T19:32:34.695Z,39.60
2019-02-24T19:45:57.399Z,41.60
2019-02-24T19:59:20.175Z,42.90
2019-02-24T20:12:43.127Z,44.20
2019-02-24T20:26:05.980Z,45.70
2019-02-24T20:39:28.664Z,46.50
2019-02-24T20:52:51.558Z,46.50
2019-02-24T21:06:14.375Z,46.50
2019-02-24T21:19:37.185Z,46.70
2019-02-24T21:33:00.011Z,46.70
2019-02-24T21:46:22.808Z,46.70
2019-02-24T21:59:45.526Z,46.40
2019-02-24T22:13:08.435Z,46.30
2019-02-24T22:26:31.166Z,46.80
2019-02-24T22:39:54.078Z,49.60
2019-02-24T22:53:16.886Z,50.10
2019-02-24T23:06:39.596Z,46.40
2019-02-24T23:20:02.540Z,41.30
2019-02-24T23:33:25.346Z,43.80
2019-02-24T23:46:48.198Z,44.80
